Oberon — SKJF — position and weather

sailwx.info

Track history (hours):
 
Tides and Currents Weather Stations Pressure Air Temp Water Temp Dewpoint Dewpoint Depression Visibility Wind Speed Wind Dir Waves Ship Positions

Oberon

Last reported at 2015-Apr-19 12:29 UTC. Time now 2015-Apr-19 14:13 UTC.
Position N 31°49' W 080°23'.

Length 232 m; draft 9.7 m.

Type: Cargo ship. MMSI: 266283000.

Date/timePositionNaut miles runAvg speedWind from/ knotsBaromVisibWave heightAir tempDewpointWater temp
2015-Apr-19 12:29N 31°49' W 080°23'1111.9
2015-Apr-19 11:33N 31°54' W 080°34'10 9.7
2015-Apr-19 10:33N 31°59' W 080°45'9 9.2
2015-Apr-19 09:33N 32°02' W 080°54'9 8.5
2015-Apr-19 08:33N 32°05' W 081°04'2 1.6
2015-Apr-19 07:33N 32°05' W 081°06'0 0.0
2015-Apr-19 06:33N 32°05' W 081°06'0 0.0
2015-Apr-19 05:33N 32°05' W 081°06'0 0.0
2015-Apr-19 04:33N 32°05' W 081°06'0 0.0
2015-Apr-19 03:30N 32°05' W 081°06'0 0.0
2015-Apr-19 02:33N 32°05' W 081°06'0 0.0
2015-Apr-19 01:33N 32°05' W 081°06'0 0.0
2015-Apr-19 00:33N 32°05' W 081°06'0 0.0
2015-Apr-18 23:33N 32°05' W 081°06'0 0.0
2015-Apr-18 22:33N 32°05' W 081°06'0 0.0
2015-Apr-18 21:33N 32°05' W 081°06'0 0.0
2015-Apr-18 20:33N 32°05' W 081°06'0 0.0
2015-Apr-18 19:34N 32°05' W 081°06'0 0.0
2015-Apr-18 18:33N 32°05' W 081°06'0 0.0
2015-Apr-18 17:33N 32°05' W 081°06'0 0.0
2015-Apr-18 16:33N 32°05' W 081°06'0 0.0
2015-Apr-18 15:33N 32°05' W 081°06'2 1.9
2015-Apr-18 14:33N 32°07' W 081°07'5 5.1
2015-Apr-18 13:33N 32°05' W 081°02'1211.6
2015-Apr-18 12:34N 32°01' W 080°49'1111.0
2015-Apr-18 11:33N 31°57' W 080°37'7 7.2
2015-Apr-18 10:32N 31°58' W 080°28'1111.0
2015-Apr-18 09:31N 31°59' W 080°15'24515.9
2015-Apr-17 18:09N 34°19' W 076°15'1016.6
2015-Apr-17 17:33N 34°26' W 076°06'20613.3
2015-Apr-17 02:05N 37°52' W 076°10'1417.3
2015-Apr-17 01:18N 38°06' W 076°13'3618.1
2015-Apr-16 23:18N 38°41' W 076°25'1317.9
2015-Apr-16 22:34N 38°54' W 076°24'1514.7
2015-Apr-16 21:33N 39°09' W 076°24'1010.4
2015-Apr-16 20:34N 39°15' W 076°34'0 0.3
2015-Apr-16 19:32N 39°15' W 076°35'0 0.0
2015-Apr-16 18:31N 39°15' W 076°35'0 0.0
2015-Apr-16 17:31N 39°15' W 076°35'0 0.0
2015-Apr-16 16:31N 39°15' W 076°35'0 0.0
2015-Apr-16 15:31N 39°15' W 076°35'0 0.0
2015-Apr-16 14:31N 39°15' W 076°35'0 0.0
2015-Apr-16 13:08N 39°15' W 076°35'0 0.0
2015-Apr-16 12:32N 39°15' W 076°35'0 0.0
2015-Apr-16 11:16N 39°15' W 076°35'0 0.0
2015-Apr-16 09:22N 39°15' W 076°35'0 0.0
2015-Apr-16 08:16N 39°15' W 076°35'0 0.3
2015-Apr-16 07:29N 39°15' W 076°35'2 1.9
2015-Apr-16 06:30N 39°15' W 076°32'0 0.0
2015-Apr-16 05:30N 39°15' W 076°32'0 0.0
2015-Apr-16 04:33N 39°15' W 076°32'0 0.0
2015-Apr-16 03:33N 39°15' W 076°32'0 0.0
2015-Apr-16 02:33N 39°15' W 076°32'0 0.0
2015-Apr-16 01:06N 39°15' W 076°32'0 0.0
2015-Apr-16 00:33N 39°15' W 076°32'0 0.0
2015-Apr-15 23:33N 39°15' W 076°32'0 0.0
2015-Apr-15 22:33N 39°15' W 076°32'0 0.0
2015-Apr-15 21:33N 39°15' W 076°32'0 0.0
2015-Apr-15 20:33N 39°15' W 076°32'0 0.0
2015-Apr-15 19:30N 39°15' W 076°32'0 0.0
2015-Apr-15 18:33N 39°15' W 076°32'0 0.0
2015-Apr-15 17:33N 39°15' W 076°32'0 0.0
2015-Apr-15 16:30N 39°15' W 076°32'0 0.0
2015-Apr-15 15:30N 39°15' W 076°32'0 0.0
2015-Apr-15 14:33N 39°15' W 076°32'0 0.0
2015-Apr-15 13:30N 39°15' W 076°32'0 0.0
2015-Apr-15 12:30N 39°15' W 076°32'0 0.0
2015-Apr-15 11:33N 39°15' W 076°32'0 0.0
2015-Apr-15 10:33N 39°15' W 076°32'0 0.0
2015-Apr-15 09:33N 39°15' W 076°32'0 0.0
2015-Apr-15 08:33N 39°15' W 076°32'0 0.0
2015-Apr-15 07:33N 39°15' W 076°32'0 0.0
2015-Apr-15 06:33N 39°15' W 076°32'0 0.0
2015-Apr-15 05:33N 39°15' W 076°32'0 0.0
2015-Apr-15 04:33N 39°15' W 076°32'0 0.0
2015-Apr-15 03:33N 39°15' W 076°32'0 0.0
2015-Apr-15 02:30N 39°15' W 076°32'0 0.0
2015-Apr-15 01:33N 39°15' W 076°32'0 0.0
2015-Apr-15 00:33N 39°15' W 076°32'0 0.0
2015-Apr-14 23:30N 39°15' W 076°32'0 0.0
2015-Apr-14 22:33N 39°15' W 076°32'0 0.0
2015-Apr-14 21:33N 39°15' W 076°32'4 4.4
2015-Apr-14 20:33N 39°11' W 076°29'1313.4
2015-Apr-14 19:33N 38°59' W 076°23'1717.4
2015-Apr-14 18:33N 38°41' W 076°26'12113.2
2015-Apr-14 09:21N 36°50' W 075°25'5417.4
2015-Apr-14 06:16N 36°57' W 074°19'1217.5
2015-Apr-14 05:33N 36°58' W 074°03'3617.5
2015-Apr-14 03:29N 37°03' W 073°18'  
Track history (hours):
 
Tides and Currents Weather Stations Pressure Air Temp Water Temp Dewpoint Dewpoint Depression Visibility Wind Speed Wind Dir Waves Ship Positions

Oberon

Last reported at 2015-Apr-19 12:29 UTC. Time now 2015-Apr-19 14:13 UTC.
Position N 31°49' W 080°23'.

Length 232 m; draft 9.7 m.

Type: Cargo ship. MMSI: 266283000.

Date/timePositionNaut miles runAvg speedWind from/ knotsBaromVisibWave heightAir tempDewpointWater temp
2015-Apr-19 12:29N 31°49' W 080°23'1111.9
2015-Apr-19 11:33N 31°54' W 080°34'10 9.7
2015-Apr-19 10:33N 31°59' W 080°45'9 9.2
2015-Apr-19 09:33N 32°02' W 080°54'9 8.5
2015-Apr-19 08:33N 32°05' W 081°04'2 1.6
2015-Apr-19 07:33N 32°05' W 081°06'0 0.0
2015-Apr-19 06:33N 32°05' W 081°06'0 0.0
2015-Apr-19 05:33N 32°05' W 081°06'0 0.0
2015-Apr-19 04:33N 32°05' W 081°06'0 0.0
2015-Apr-19 03:30N 32°05' W 081°06'0 0.0
2015-Apr-19 02:33N 32°05' W 081°06'0 0.0
2015-Apr-19 01:33N 32°05' W 081°06'0 0.0
2015-Apr-19 00:33N 32°05' W 081°06'0 0.0
2015-Apr-18 23:33N 32°05' W 081°06'0 0.0
2015-Apr-18 22:33N 32°05' W 081°06'0 0.0
2015-Apr-18 21:33N 32°05' W 081°06'0 0.0
2015-Apr-18 20:33N 32°05' W 081°06'0 0.0
2015-Apr-18 19:34N 32°05' W 081°06'0 0.0
2015-Apr-18 18:33N 32°05' W 081°06'0 0.0
2015-Apr-18 17:33N 32°05' W 081°06'0 0.0
2015-Apr-18 16:33N 32°05' W 081°06'0 0.0
2015-Apr-18 15:33N 32°05' W 081°06'2 1.9
2015-Apr-18 14:33N 32°07' W 081°07'5 5.1
2015-Apr-18 13:33N 32°05' W 081°02'1211.6
2015-Apr-18 12:34N 32°01' W 080°49'1111.0
2015-Apr-18 11:33N 31°57' W 080°37'7 7.2
2015-Apr-18 10:32N 31°58' W 080°28'1111.0
2015-Apr-18 09:31N 31°59' W 080°15'24515.9
2015-Apr-17 18:09N 34°19' W 076°15'1016.6
2015-Apr-17 17:33N 34°26' W 076°06'20613.3
2015-Apr-17 02:05N 37°52' W 076°10'1417.3
2015-Apr-17 01:18N 38°06' W 076°13'3618.1
2015-Apr-16 23:18N 38°41' W 076°25'1317.9
2015-Apr-16 22:34N 38°54' W 076°24'1514.7
2015-Apr-16 21:33N 39°09' W 076°24'1010.4
2015-Apr-16 20:34N 39°15' W 076°34'0 0.3
2015-Apr-16 19:32N 39°15' W 076°35'0 0.0
2015-Apr-16 18:31N 39°15' W 076°35'0 0.0
2015-Apr-16 17:31N 39°15' W 076°35'0 0.0
2015-Apr-16 16:31N 39°15' W 076°35'0 0.0
2015-Apr-16 15:31N 39°15' W 076°35'0 0.0
2015-Apr-16 14:31N 39°15' W 076°35'0 0.0
2015-Apr-16 13:08N 39°15' W 076°35'0 0.0
2015-Apr-16 12:32N 39°15' W 076°35'0 0.0
2015-Apr-16 11:16N 39°15' W 076°35'0 0.0
2015-Apr-16 09:22N 39°15' W 076°35'0 0.0
2015-Apr-16 08:16N 39°15' W 076°35'0 0.3
2015-Apr-16 07:29N 39°15' W 076°35'2 1.9
2015-Apr-16 06:30N 39°15' W 076°32'0 0.0
2015-Apr-16 05:30N 39°15' W 076°32'0 0.0
2015-Apr-16 04:33N 39°15' W 076°32'0 0.0
2015-Apr-16 03:33N 39°15' W 076°32'0 0.0
2015-Apr-16 02:33N 39°15' W 076°32'0 0.0
2015-Apr-16 01:06N 39°15' W 076°32'0 0.0
2015-Apr-16 00:33N 39°15' W 076°32'0 0.0
2015-Apr-15 23:33N 39°15' W 076°32'0 0.0
2015-Apr-15 22:33N 39°15' W 076°32'0 0.0
2015-Apr-15 21:33N 39°15' W 076°32'0 0.0
2015-Apr-15 20:33N 39°15' W 076°32'0 0.0
2015-Apr-15 19:30N 39°15' W 076°32'0 0.0
2015-Apr-15 18:33N 39°15' W 076°32'0 0.0
2015-Apr-15 17:33N 39°15' W 076°32'0 0.0
2015-Apr-15 16:30N 39°15' W 076°32'0 0.0
2015-Apr-15 15:30N 39°15' W 076°32'0 0.0
2015-Apr-15 14:33N 39°15' W 076°32'0 0.0
2015-Apr-15 13:30N 39°15' W 076°32'0 0.0
2015-Apr-15 12:30N 39°15' W 076°32'0 0.0
2015-Apr-15 11:33N 39°15' W 076°32'0 0.0
2015-Apr-15 10:33N 39°15' W 076°32'0 0.0
2015-Apr-15 09:33N 39°15' W 076°32'0 0.0
2015-Apr-15 08:33N 39°15' W 076°32'0 0.0
2015-Apr-15 07:33N 39°15' W 076°32'0 0.0
2015-Apr-15 06:33N 39°15' W 076°32'0 0.0
2015-Apr-15 05:33N 39°15' W 076°32'0 0.0
2015-Apr-15 04:33N 39°15' W 076°32'0 0.0
2015-Apr-15 03:33N 39°15' W 076°32'0 0.0
2015-Apr-15 02:30N 39°15' W 076°32'0 0.0
2015-Apr-15 01:33N 39°15' W 076°32'0 0.0
2015-Apr-15 00:33N 39°15' W 076°32'0 0.0
2015-Apr-14 23:30N 39°15' W 076°32'0 0.0
2015-Apr-14 22:33N 39°15' W 076°32'0 0.0
2015-Apr-14 21:33N 39°15' W 076°32'4 4.4
2015-Apr-14 20:33N 39°11' W 076°29'1313.4
2015-Apr-14 19:33N 38°59' W 076°23'1717.4
2015-Apr-14 18:33N 38°41' W 076°26'12113.2
2015-Apr-14 09:21N 36°50' W 075°25'5417.4
2015-Apr-14 06:16N 36°57' W 074°19'1217.5
2015-Apr-14 05:33N 36°58' W 074°03'3617.5
2015-Apr-14 03:29N 37°03' W 073°18'  

Dump ship's entire track history